sensor_id;sensor_type;location;lat;lon;timestamp;pressure;altitude;pressure_sealevel;temperature;humidity
50125;BME280;36023;48.670;6.184;2023-03-26T00:02:21;98519.50;;;17.39;41.29
50125;BME280;36023;48.670;6.184;2023-03-26T00:04:47;98516.97;;;17.37;41.24
50125;BME280;36023;48.670;6.184;2023-03-26T00:07:14;98523.88;;;17.38;41.41
50125;BME280;36023;48.670;6.184;2023-03-26T00:09:40;98521.38;;;17.37;41.14
50125;BME280;36023;48.670;6.184;2023-03-26T00:12:06;98509.13;;;17.37;41.14
50125;BME280;36023;48.670;6.184;2023-03-26T00:14:31;98497.81;;;17.37;41.17
50125;BME280;36023;48.670;6.184;2023-03-26T00:16:58;98491.72;;;17.36;41.08
50125;BME280;36023;48.670;6.184;2023-03-26T00:19:23;98497.88;;;17.35;41.29
50125;BME280;36023;48.670;6.184;2023-03-26T00:21:50;98495.25;;;17.35;41.26
50125;BME280;36023;48.670;6.184;2023-03-26T00:24:19;98488.28;;;17.36;41.25
50125;BME280;36023;48.670;6.184;2023-03-26T00:26:44;98480.41;;;17.36;41.15
50125;BME280;36023;48.670;6.184;2023-03-26T00:29:15;98470.00;;;17.34;41.32
50125;BME280;36023;48.670;6.184;2023-03-26T00:31:43;98471.69;;;17.35;41.25
50125;BME280;36023;48.670;6.184;2023-03-26T00:34:10;98460.38;;;17.35;41.13
50125;BME280;36023;48.670;6.184;2023-03-26T00:36:36;98457.75;;;17.35;41.10
50125;BME280;36023;48.670;6.184;2023-03-26T00:39:03;98449.06;;;17.34;41.22
50125;BME280;36023;48.670;6.184;2023-03-26T00:41:30;98445.63;;;17.34;41.37
50125;BME280;36023;48.670;6.184;2023-03-26T00:43:58;98456.09;;;17.34;41.20
50125;BME280;36023;48.670;6.184;2023-03-26T00:46:25;98435.16;;;17.34;41.26
50125;BME280;36023;48.670;6.184;2023-03-26T00:48:52;98439.53;;;17.33;41.12
50125;BME280;36023;48.670;6.184;2023-03-26T00:51:19;98434.31;;;17.33;41.45
50125;BME280;36023;48.670;6.184;2023-03-26T00:53:46;98423.84;;;17.33;41.20
50125;BME280;36023;48.670;6.184;2023-03-26T00:56:13;98429.06;;;17.33;41.19
50125;BME280;36023;48.670;6.184;2023-03-26T00:58:41;98424.78;;;17.32;41.18
50125;BME280;36023;48.670;6.184;2023-03-26T01:01:10;98416.91;;;17.32;41.13
50125;BME280;36023;48.670;6.184;2023-03-26T01:03:38;98416.06;;;17.32;41.11
50125;BME280;36023;48.670;6.184;2023-03-26T01:06:11;98408.22;;;17.32;41.11
50125;BME280;36023;48.670;6.184;2023-03-26T01:08:46;98403.00;;;17.32;41.07
50125;BME280;36023;48.670;6.184;2023-03-26T01:11:16;98400.38;;;17.32;41.13
50125;BME280;36023;48.670;6.184;2023-03-26T01:14:19;98387.38;;;17.30;41.35
50125;BME280;36023;48.670;6.184;2023-03-26T01:16:54;98382.06;;;17.32;41.38
50125;BME280;36023;48.670;6.184;2023-03-26T01:21:55;98369.16;;;17.29;40.98
50125;BME280;36023;48.670;6.184;2023-03-26T01:24:22;98351.69;;;17.29;41.32
50125;BME280;36023;48.670;6.184;2023-03-26T01:29:38;98343.84;;;17.29;41.29
50125;BME280;36023;48.670;6.184;2023-03-26T01:40:13;98302.97;;;17.26;41.14
50125;BME280;36023;48.670;6.184;2023-03-26T01:42:47;98299.44;;;17.27;41.28
50125;BME280;36023;48.670;6.184;2023-03-26T01:45:17;98299.50;;;17.26;41.42
50125;BME280;36023;48.670;6.184;2023-03-26T01:47:46;98302.97;;;17.26;41.17
50125;BME280;36023;48.670;6.184;2023-03-26T01:50:12;98299.59;;;17.24;41.37
50125;BME280;36023;48.670;6.184;2023-03-26T01:52:38;98295.22;;;17.25;41.22
50125;BME280;36023;48.670;6.184;2023-03-26T01:55:05;98294.38;;;17.24;41.05
50125;BME280;36023;48.670;6.184;2023-03-26T02:00:45;98274.38;;;17.23;41.26
50125;BME280;36023;48.670;6.184;2023-03-26T02:03:26;98264.84;;;17.22;41.10
50125;BME280;36023;48.670;6.184;2023-03-26T02:09:03;98264.00;;;17.22;41.09
50125;BME280;36023;48.670;6.184;2023-03-26T02:11:30;98260.53;;;17.21;41.29
50125;BME280;36023;48.670;6.184;2023-03-26T02:13:56;98255.31;;;17.21;41.26
50125;BME280;36023;48.670;6.184;2023-03-26T02:16:23;98251.84;;;17.21;41.24
50125;BME280;36023;48.670;6.184;2023-03-26T02:18:49;98244.84;;;17.21;41.18
50125;BME280;36023;48.670;6.184;2023-03-26T02:21:22;98236.16;;;17.21;41.24
50125;BME280;36023;48.670;6.184;2023-03-26T02:23:53;98230.09;;;17.20;41.17
50125;BME280;36023;48.670;6.184;2023-03-26T02:26:32;98221.28;;;17.21;41.19
50125;BME280;36023;48.670;6.184;2023-03-26T02:29:18;98214.38;;;17.20;41.32
50125;BME280;36023;48.670;6.184;2023-03-26T02:31:46;98201.31;;;17.20;40.86
50125;BME280;36023;48.670;6.184;2023-03-26T02:34:15;98203.91;;;17.20;41.00
50125;BME280;36023;48.670;6.184;2023-03-26T02:36:48;98201.31;;;17.20;40.99
50125;BME280;36023;48.670;6.184;2023-03-26T02:39:14;98194.34;;;17.19;41.10
50125;BME280;36023;48.670;6.184;2023-03-26T02:41:46;98178.66;;;17.19;41.12
50125;BME280;36023;48.670;6.184;2023-03-26T02:44:13;98167.34;;;17.19;41.14
50125;BME280;36023;48.670;6.184;2023-03-26T02:46:58;98152.50;;;17.19;41.03
50125;BME280;36023;48.670;6.184;2023-03-26T02:49:39;98143.81;;;17.19;41.13
50125;BME280;36023;48.670;6.184;2023-03-26T02:52:04;98128.09;;;17.19;41.21
50125;BME280;36023;48.670;6.184;2023-03-26T02:54:36;98128.09;;;17.19;41.27
50125;BME280;36023;48.670;6.184;2023-03-26T02:57:29;98125.50;;;17.19;41.26
50125;BME280;36023;48.670;6.184;2023-03-26T03:00:16;98115.03;;;17.19;41.10
50125;BME280;36023;48.670;6.184;2023-03-26T03:03:05;98119.41;;;17.18;41.05
50125;BME280;36023;48.670;6.184;2023-03-26T03:05:31;98132.50;;;17.18;41.18
50125;BME280;36023;48.670;6.184;2023-03-26T03:08:12;98124.66;;;17.18;41.35
50125;BME280;36023;48.670;6.184;2023-03-26T03:11:01;98125.59;;;17.17;41.36
50125;BME280;36023;48.670;6.184;2023-03-26T03:13:43;98132.50;;;17.18;41.35
50125;BME280;36023;48.670;6.184;2023-03-26T03:16:10;98129.03;;;17.18;41.38
50125;BME280;36023;48.670;6.184;2023-03-26T03:18:36;98120.34;;;17.17;41.48
50125;BME280;36023;48.670;6.184;2023-03-26T03:21:04;98118.59;;;17.18;41.35
50125;BME280;36023;48.670;6.184;2023-03-26T03:23:32;98112.50;;;17.17;41.28
50125;BME280;36023;48.670;6.184;2023-03-26T03:26:19;98107.28;;;17.17;41.19
50125;BME280;36023;48.670;6.184;2023-03-26T03:28:54;98094.19;;;17.17;41.39
50125;BME280;36023;48.670;6.184;2023-03-26T03:31:21;98081.22;;;17.16;41.54
50125;BME280;36023;48.670;6.184;2023-03-26T03:33:47;98069.91;;;17.15;41.46
50125;BME280;36023;48.670;6.184;2023-03-26T03:36:15;98069.06;;;17.15;41.41
50125;BME280;36023;48.670;6.184;2023-03-26T03:38:47;98069.91;;;17.15;41.42
50125;BME280;36023;48.670;6.184;2023-03-26T03:41:17;98056.94;;;17.14;41.44
50125;BME280;36023;48.670;6.184;2023-03-26T03:43:44;98056.81;;;17.15;41.55
50125;BME280;36023;48.670;6.184;2023-03-26T03:46:14;98058.59;;;17.15;41.43
50125;BME280;36023;48.670;6.184;2023-03-26T03:48:45;98063.00;;;17.14;41.45
50125;BME280;36023;48.670;6.184;2023-03-26T03:51:16;98064.69;;;17.15;41.41
50125;BME280;36023;48.670;6.184;2023-03-26T03:53:48;98050.88;;;17.13;41.50
50125;BME280;36023;48.670;6.184;2023-03-26T03:56:19;98056.09;;;17.13;41.58
50125;BME280;36023;48.670;6.184;2023-03-26T03:59:08;98045.63;;;17.13;41.45
50125;BME280;36023;48.670;6.184;2023-03-26T04:01:36;98036.00;;;17.14;41.50
50125;BME280;36023;48.670;6.184;2023-03-26T04:04:08;98033.38;;;17.14;41.45
50125;BME280;36023;48.670;6.184;2023-03-26T04:06:57;98022.16;;;17.12;41.58
50125;BME280;36023;48.670;6.184;2023-03-26T04:09:26;98013.41;;;17.13;41.58
50125;BME280;36023;48.670;6.184;2023-03-26T04:11:55;97996.88;;;17.12;41.70
50125;BME280;36023;48.670;6.184;2023-03-26T04:14:41;97985.53;;;17.12;41.57
50125;BME280;36023;48.670;6.184;2023-03-26T04:17:17;97982.06;;;17.11;41.63
50125;BME280;36023;48.670;6.184;2023-03-26T04:19:46;97973.38;;;17.11;41.80
50125;BME280;36023;48.670;6.184;2023-03-26T04:22:13;97968.16;;;17.11;41.63
50125;BME280;36023;48.670;6.184;2023-03-26T04:24:52;97964.72;;;17.10;41.60
50125;BME280;36023;48.670;6.184;2023-03-26T04:27:36;97947.34;;;17.09;41.69
50125;BME280;36023;48.670;6.184;2023-03-26T04:30:25;97940.31;;;17.10;41.73
50125;BME280;36023;48.670;6.184;2023-03-26T04:33:01;97933.31;;;17.10;41.85
50125;BME280;36023;48.670;6.184;2023-03-26T04:35:34;97923.69;;;17.11;41.79
50125;BME280;36023;48.670;6.184;2023-03-26T04:38:03;97918.56;;;17.09;41.86
50125;BME280;36023;48.670;6.184;2023-03-26T04:40:36;97920.22;;;17.10;41.86
50125;BME280;36023;48.670;6.184;2023-03-26T04:43:04;97915.84;;;17.11;41.83
50125;BME280;36023;48.670;6.184;2023-03-26T04:46:02;97916.78;;;17.10;41.84
50125;BME280;36023;48.670;6.184;2023-03-26T04:48:32;97912.38;;;17.10;41.91
50125;BME280;36023;48.670;6.184;2023-03-26T04:50:57;97897.63;;;17.09;41.91
50125;BME280;36023;48.670;6.184;2023-03-26T04:53:23;97896.69;;;17.10;41.77
50125;BME280;36023;48.670;6.184;2023-03-26T04:59:30;97877.53;;;17.10;42.09
50125;BME280;36023;48.670;6.184;2023-03-26T05:02:02;97871.47;;;17.09;42.16
50125;BME280;36023;48.670;6.184;2023-03-26T05:04:33;97867.91;;;17.10;42.20
50125;BME280;36023;48.670;6.184;2023-03-26T05:07:01;97851.38;;;17.10;42.09
50125;BME280;36023;48.670;6.184;2023-03-26T05:09:47;97852.31;;;17.09;42.31
50125;BME280;36023;48.670;6.184;2023-03-26T05:12:14;97851.38;;;17.10;42.26
50125;BME280;36023;48.670;6.184;2023-03-26T05:15:01;97841.75;;;17.10;42.29
50125;BME280;36023;48.670;6.184;2023-03-26T05:17:40;97838.41;;;17.08;42.23
50125;BME280;36023;48.670;6.184;2023-03-26T05:20:17;97834.84;;;17.09;42.35
50125;BME280;36023;48.670;6.184;2023-03-26T05:22:47;97834.84;;;17.09;42.34
50125;BME280;36023;48.670;6.184;2023-03-26T05:25:19;97841.03;;;17.08;42.36
50125;BME280;36023;48.670;6.184;2023-03-26T05:27:46;97828.91;;;17.07;42.54
50125;BME280;36023;48.670;6.184;2023-03-26T05:30:18;97829.63;;;17.09;42.55
50125;BME280;36023;48.670;6.184;2023-03-26T05:32:47;97832.22;;;17.09;42.51
50125;BME280;36023;48.670;6.184;2023-03-26T05:35:15;97838.41;;;17.08;42.55
50125;BME280;36023;48.670;6.184;2023-03-26T05:37:43;97825.34;;;17.08;42.51
50125;BME280;36023;48.670;6.184;2023-03-26T05:40:11;97829.72;;;17.08;42.76
50125;BME280;36023;48.670;6.184;2023-03-26T05:43:07;97822.72;;;17.08;42.55
50125;BME280;36023;48.670;6.184;2023-03-26T05:45:39;97814.97;;;17.07;42.62
50125;BME280;36023;48.670;6.184;2023-03-26T05:48:15;97818.44;;;17.07;42.77
50125;BME280;36023;48.670;6.184;2023-03-26T05:50:41;97809.75;;;17.07;42.65
50125;BME280;36023;48.670;6.184;2023-03-26T05:53:07;97808.91;;;17.06;42.87
50125;BME280;36023;48.670;6.184;2023-03-26T05:56:01;97813.19;;;17.07;42.71
50125;BME280;36023;48.670;6.184;2023-03-26T05:58:50;97813.31;;;17.06;42.77
50125;BME280;36023;48.670;6.184;2023-03-26T06:01:34;97802.84;;;17.06;43.20
50125;BME280;36023;48.670;6.184;2023-03-26T06:04:26;97800.22;;;17.06;42.93
50125;BME280;36023;48.670;6.184;2023-03-26T06:07:11;97789.75;;;17.06;43.06
50125;BME280;36023;48.670;6.184;2023-03-26T06:09:38;97788.09;;;17.05;43.02
50125;BME280;36023;48.670;6.184;2023-03-26T06:12:06;97784.59;;;17.04;43.14
50125;BME280;36023;48.670;6.184;2023-03-26T06:14:33;97786.31;;;17.05;43.17
50125;BME280;36023;48.670;6.184;2023-03-26T06:17:16;97784.59;;;17.04;43.02
50125;BME280;36023;48.670;6.184;2023-03-26T06:20:07;97783.69;;;17.05;43.16
50125;BME280;36023;48.670;6.184;2023-03-26T06:22:37;97783.78;;;17.04;43.09
50125;BME280;36023;48.670;6.184;2023-03-26T06:25:24;97781.16;;;17.04;43.31
50125;BME280;36023;48.670;6.184;2023-03-26T06:28:02;97785.56;;;17.03;43.38
50125;BME280;36023;48.670;6.184;2023-03-26T06:30:53;97782.00;;;17.04;43.49
50125;BME280;36023;48.670;6.184;2023-03-26T06:33:30;97781.16;;;17.04;43.42
50125;BME280;36023;48.670;6.184;2023-03-26T06:35:58;97778.53;;;17.04;43.54
50125;BME280;36023;48.670;6.184;2023-03-26T06:38:24;97782.09;;;17.03;43.54
50125;BME280;36023;48.670;6.184;2023-03-26T06:40:50;97779.47;;;17.03;43.22
50125;BME280;36023;48.670;6.184;2023-03-26T06:43:26;97776.88;;;17.03;43.77
50125;BME280;36023;48.670;6.184;2023-03-26T06:45:54;97779.47;;;17.03;43.57
50125;BME280;36023;48.670;6.184;2023-03-26T06:48:40;97776.03;;;17.02;43.75
50125;BME280;36023;48.670;6.184;2023-03-26T06:51:18;97782.09;;;17.03;43.71
50125;BME280;36023;48.670;6.184;2023-03-26T06:54:10;97773.41;;;17.02;43.61
50125;BME280;36023;48.670;6.184;2023-03-26T06:56:45;97775.19;;;17.02;43.78
50125;BME280;36023;48.670;6.184;2023-03-26T06:59:31;97778.66;;;17.02;43.87
50125;BME280;36023;48.670;6.184;2023-03-26T07:02:26;97779.59;;;17.01;43.69
50125;BME280;36023;48.670;6.184;2023-03-26T07:05:12;97775.19;;;17.02;43.90
50125;BME280;36023;48.670;6.184;2023-03-26T07:07:56;97774.38;;;17.01;44.08
50125;BME280;36023;48.670;6.184;2023-03-26T07:10:41;97771.84;;;16.99;43.86
50125;BME280;36023;48.670;6.184;2023-03-26T07:13:09;97765.78;;;16.99;44.06
50125;BME280;36023;48.670;6.184;2023-03-26T07:15:47;97771.75;;;17.01;44.13
50125;BME280;36023;48.670;6.184;2023-03-26T07:18:40;97766.63;;;16.99;44.10
50125;BME280;36023;48.670;6.184;2023-03-26T07:21:09;97761.41;;;16.99;43.99
50125;BME280;36023;48.670;6.184;2023-03-26T07:23:36;97771.03;;;16.99;44.10
50125;BME280;36023;48.670;6.184;2023-03-26T07:29:36;97766.72;;;16.98;44.30
50125;BME280;36023;48.670;6.184;2023-03-26T07:32:43;97769.34;;;16.98;44.09
50125;BME280;36023;48.670;6.184;2023-03-26T07:35:29;97774.56;;;16.98;44.14
50125;BME280;36023;48.670;6.184;2023-03-26T07:41:07;97771.97;;;16.98;44.35
50125;BME280;36023;48.670;6.184;2023-03-26T07:46:46;97764.13;;;16.98;44.29
50125;BME280;36023;48.670;6.184;2023-03-26T07:49:33;97760.66;;;16.97;44.28
50125;BME280;36023;48.670;6.184;2023-03-26T07:52:19;97771.22;;;16.96;44.17
50125;BME280;36023;48.670;6.184;2023-03-26T07:54:55;97769.47;;;16.96;44.36
50125;BME280;36023;48.670;6.184;2023-03-26T07:58:03;97779.06;;;16.96;44.39
50125;BME280;36023;48.670;6.184;2023-03-26T08:07:44;97785.34;;;16.93;44.36
50125;BME280;36023;48.670;6.184;2023-03-26T08:19:21;97800.19;;;16.93;44.15
50125;BME280;36023;48.670;6.184;2023-03-26T08:21:53;97801.03;;;16.93;44.24
50125;BME280;36023;48.670;6.184;2023-03-26T08:24:32;97792.34;;;16.93;44.16
50125;BME280;36023;48.670;6.184;2023-03-26T08:29:47;97790.66;;;16.92;44.21
50125;BME280;36023;48.670;6.184;2023-03-26T08:32:18;97809.91;;;16.91;44.00
50125;BME280;36023;48.670;6.184;2023-03-26T08:34:44;97803.84;;;16.90;43.98
50125;BME280;36023;48.670;6.184;2023-03-26T08:37:11;97804.81;;;16.89;44.01
50125;BME280;36023;48.670;6.184;2023-03-26T08:39:37;97821.31;;;16.90;43.76
50125;BME280;36023;48.670;6.184;2023-03-26T08:45:19;97815.34;;;16.88;43.52
50125;BME280;36023;48.670;6.184;2023-03-26T08:48:09;97813.56;;;16.88;43.54
50125;BME280;36023;48.670;6.184;2023-03-26T08:53:38;97806.75;;;16.86;43.45
50125;BME280;36023;48.670;6.184;2023-03-26T08:56:23;97818.16;;;16.85;43.27
50125;BME280;36023;48.670;6.184;2023-03-26T09:02:10;97811.38;;;16.82;43.22
50125;BME280;36023;48.670;6.184;2023-03-26T09:21:18;97808.00;;;16.80;42.95
50125;BME280;36023;48.670;6.184;2023-03-26T09:38:09;97788.13;;;16.78;42.64
50125;BME280;36023;48.670;6.184;2023-03-26T09:43:40;97787.28;;;16.77;42.89
50125;BME280;36023;48.670;6.184;2023-03-26T09:51:36;97803.69;;;16.79;42.74
50125;BME280;36023;48.670;6.184;2023-03-26T10:07:51;97805.41;;;16.93;44.90
50125;BME280;36023;48.670;6.184;2023-03-26T10:12:53;97808.03;;;16.93;45.28
50125;BME280;36023;48.670;6.184;2023-03-26T10:15:56;97806.38;;;16.92;45.38
50125;BME280;36023;48.670;6.184;2023-03-26T10:18:37;97810.75;;;16.91;45.70
50125;BME280;36023;48.670;6.184;2023-03-26T10:21:23;97800.41;;;16.90;45.36
50125;BME280;36023;48.670;6.184;2023-03-26T10:27:07;97818.88;;;16.87;45.60
50125;BME280;36023;48.670;6.184;2023-03-26T10:43:30;97808.75;;;16.82;45.63
50125;BME280;36023;48.670;6.184;2023-03-26T10:51:54;97822.84;;;16.80;45.70
50125;BME280;36023;48.670;6.184;2023-03-26T10:54:33;97806.44;;;16.78;45.70
50125;BME280;36023;48.670;6.184;2023-03-26T10:59:46;97812.59;;;16.77;45.72
50125;BME280;36023;48.670;6.184;2023-03-26T11:02:37;97800.47;;;16.76;45.65
50125;BME280;36023;48.670;6.184;2023-03-26T11:05:26;97803.91;;;16.76;45.58
50125;BME280;36023;48.670;6.184;2023-03-26T11:08:30;97805.81;;;16.74;45.55
50125;BME280;36023;48.670;6.184;2023-03-26T11:14:18;97797.13;;;16.74;45.41
50125;BME280;36023;48.670;6.184;2023-03-26T11:16:58;97797.19;;;16.72;45.44
50125;BME280;36023;48.670;6.184;2023-03-26T11:19:49;97793.75;;;16.71;45.61
50125;BME280;36023;48.670;6.184;2023-03-26T11:22:54;97799.81;;;16.72;45.37
50125;BME280;36023;48.670;6.184;2023-03-26T11:25:33;97785.91;;;16.71;45.53
50125;BME280;36023;48.670;6.184;2023-03-26T11:30:49;97798.97;;;16.71;45.55
50125;BME280;36023;48.670;6.184;2023-03-26T11:33:22;97805.03;;;16.72;45.48
50125;BME280;36023;48.670;6.184;2023-03-26T11:35:50;97808.59;;;16.71;45.40
50125;BME280;36023;48.670;6.184;2023-03-26T11:38:37;97817.28;;;16.71;45.36
50125;BME280;36023;48.670;6.184;2023-03-26T11:43:57;97846.03;;;16.71;45.33
50125;BME280;36023;48.670;6.184;2023-03-26T11:46:28;97850.44;;;16.71;45.47
50125;BME280;36023;48.670;6.184;2023-03-26T11:48:58;97858.28;;;16.71;45.51
50125;BME280;36023;48.670;6.184;2023-03-26T11:51:34;97880.03;;;16.71;45.51
50125;BME280;36023;48.670;6.184;2023-03-26T11:54:01;97889.63;;;16.71;45.56
50125;BME280;36023;48.670;6.184;2023-03-26T11:56:38;97895.72;;;16.71;45.50
50125;BME280;36023;48.670;6.184;2023-03-26T11:59:18;97898.31;;;16.71;45.49
50125;BME280;36023;48.670;6.184;2023-03-26T12:02:15;97900.94;;;16.71;45.63
50125;BME280;36023;48.670;6.184;2023-03-26T12:04:43;97895.72;;;16.71;45.69
50125;BME280;36023;48.670;6.184;2023-03-26T12:07:21;97889.63;;;16.71;45.64
50125;BME280;36023;48.670;6.184;2023-03-26T12:09:58;97896.53;;;16.72;45.64
50125;BME280;36023;48.670;6.184;2023-03-26T12:12:35;97911.38;;;16.71;45.68
50125;BME280;36023;48.670;6.184;2023-03-26T12:15:04;97915.69;;;16.73;45.74
50125;BME280;36023;48.670;6.184;2023-03-26T12:17:33;97914.84;;;16.72;45.67
50125;BME280;36023;48.670;6.184;2023-03-26T12:19:59;97891.31;;;16.72;45.53
50125;BME280;36023;48.670;6.184;2023-03-26T12:25:14;97882.56;;;16.73;45.63
50125;BME280;36023;48.670;6.184;2023-03-26T12:27:46;97880.84;;;16.72;45.70
50125;BME280;36023;48.670;6.184;2023-03-26T12:30:23;97879.06;;;16.73;45.64
50125;BME280;36023;48.670;6.184;2023-03-26T12:32:51;97875.72;;;16.70;45.45
50125;BME280;36023;48.670;6.184;2023-03-26T12:35:28;97868.72;;;16.71;45.65
50125;BME280;36023;48.670;6.184;2023-03-26T12:40:41;97870.41;;;16.72;45.68
50125;BME280;36023;48.670;6.184;2023-03-26T12:43:27;97868.72;;;16.71;45.62
50125;BME280;36023;48.670;6.184;2023-03-26T12:45:55;97857.44;;;16.70;45.69
50125;BME280;36023;48.670;6.184;2023-03-26T12:48:24;97866.94;;;16.71;45.79
50125;BME280;36023;48.670;6.184;2023-03-26T12:56:28;97844.38;;;16.70;45.58
50125;BME280;36023;48.670;6.184;2023-03-26T13:06:59;97839.13;;;16.70;45.48
50125;BME280;36023;48.670;6.184;2023-03-26T13:15:19;97839.97;;;16.71;45.50
50125;BME280;36023;48.670;6.184;2023-03-26T13:20:58;97838.28;;;16.70;45.45
50125;BME280;36023;48.670;6.184;2023-03-26T13:23:46;97838.28;;;16.70;45.45
50125;BME280;36023;48.670;6.184;2023-03-26T13:26:34;97837.47;;;16.69;45.56
50125;BME280;36023;48.670;6.184;2023-03-26T13:32:07;97833.06;;;16.70;45.48
50125;BME280;36023;48.670;6.184;2023-03-26T13:48:13;97823.44;;;16.70;45.24
50125;BME280;36023;48.670;6.184;2023-03-26T13:50:43;97819.16;;;16.69;45.31
50125;BME280;36023;48.670;6.184;2023-03-26T13:53:18;97805.16;;;16.70;45.60
50125;BME280;36023;48.670;6.184;2023-03-26T13:55:50;97809.53;;;16.70;45.41
50125;BME280;36023;48.670;6.184;2023-03-26T13:58:42;97803.47;;;16.69;45.49
50125;BME280;36023;48.670;6.184;2023-03-26T14:01:25;97804.31;;;16.70;45.30
50125;BME280;36023;48.670;6.184;2023-03-26T14:06:54;97812.16;;;16.70;45.38
50125;BME280;36023;48.670;6.184;2023-03-26T14:09:29;97823.44;;;16.70;45.15
50125;BME280;36023;48.670;6.184;2023-03-26T14:17:27;97828.69;;;16.70;45.42
50125;BME280;36023;48.670;6.184;2023-03-26T14:23:28;97818.03;;;16.74;45.91
50125;BME280;36023;48.670;6.184;2023-03-26T14:34:25;97828.66;;;16.97;45.68
50125;BME280;36023;48.670;6.184;2023-03-26T14:37:19;97822.16;;;17.03;45.46
50125;BME280;36023;48.670;6.184;2023-03-26T14:45:50;97811.63;;;17.17;45.50
50125;BME280;36023;48.670;6.184;2023-03-26T14:48:42;97810.50;;;17.21;45.28
50125;BME280;36023;48.670;6.184;2023-03-26T14:51:31;97812.91;;;17.24;45.19
50125;BME280;36023;48.670;6.184;2023-03-26T14:54:02;97804.88;;;17.27;45.28
50125;BME280;36023;48.670;6.184;2023-03-26T15:06:05;97797.84;;;17.41;45.09
50125;BME280;36023;48.670;6.184;2023-03-26T15:29:12;97843.78;;;17.58;44.76
50125;BME280;36023;48.670;6.184;2023-03-26T15:35:04;97835.00;;;17.59;44.82
50125;BME280;36023;48.670;6.184;2023-03-26T15:40:27;97834.59;;;17.65;44.64
50125;BME280;36023;48.670;6.184;2023-03-26T15:43:16;97843.28;;;17.65;44.64
50125;BME280;36023;48.670;6.184;2023-03-26T15:51:44;97842.91;;;17.71;44.55
50125;BME280;36023;48.670;6.184;2023-03-26T15:59:41;97844.16;;;17.78;44.58
50125;BME280;36023;48.670;6.184;2023-03-26T16:02:35;97838.91;;;17.78;44.49
50125;BME280;36023;48.670;6.184;2023-03-26T16:05:26;97838.69;;;17.81;44.62
50125;BME280;36023;48.670;6.184;2023-03-26T16:10:54;97838.59;;;17.83;44.49
50125;BME280;36023;48.670;6.184;2023-03-26T16:18:40;97846.13;;;17.88;44.53
50125;BME280;36023;48.670;6.184;2023-03-26T16:23:55;97852.00;;;17.91;44.57
50125;BME280;36023;48.670;6.184;2023-03-26T16:26:51;97856.41;;;17.91;44.38
50125;BME280;36023;48.670;6.184;2023-03-26T16:29:20;97853.78;;;17.91;44.48
50125;BME280;36023;48.670;6.184;2023-03-26T16:34:41;97858.19;;;17.90;44.31
50125;BME280;36023;48.670;6.184;2023-03-26T16:37:34;97865.09;;;17.91;44.33
50125;BME280;36023;48.670;6.184;2023-03-26T16:45:32;97865.28;;;17.88;44.10
50125;BME280;36023;48.670;6.184;2023-03-26T16:54:05;97863.97;;;17.83;44.48
50125;BME280;36023;48.670;6.184;2023-03-26T16:56:48;97869.28;;;17.81;44.31
50125;BME280;36023;48.670;6.184;2023-03-26T16:59:41;97865.94;;;17.79;44.38
50125;BME280;36023;48.670;6.184;2023-03-26T17:05:18;97861.03;;;17.74;44.39
50125;BME280;36023;48.670;6.184;2023-03-26T17:10:44;97868.25;;;17.71;44.43
50125;BME280;36023;48.670;6.184;2023-03-26T17:13:20;97870.94;;;17.69;44.41
50125;BME280;36023;48.670;6.184;2023-03-26T17:15:58;97872.84;;;17.67;44.43
50125;BME280;36023;48.670;6.184;2023-03-26T17:21:03;97873.97;;;17.63;44.51
50125;BME280;36023;48.670;6.184;2023-03-26T17:29:12;97870.91;;;17.57;44.42
50125;BME280;36023;48.670;6.184;2023-03-26T17:31:57;97869.38;;;17.54;44.56
50125;BME280;36023;48.670;6.184;2023-03-26T17:37:27;97886.19;;;17.50;44.41
50125;BME280;36023;48.670;6.184;2023-03-26T17:40:43;97886.19;;;17.50;44.45
50125;BME280;36023;48.670;6.184;2023-03-26T17:43:11;97887.97;;;17.49;44.55
50125;BME280;36023;48.670;6.184;2023-03-26T17:45:56;97894.88;;;17.50;44.66
50125;BME280;36023;48.670;6.184;2023-03-26T17:48:22;97891.44;;;17.50;44.49
50125;BME280;36023;48.670;6.184;2023-03-26T17:50:54;97896.66;;;17.50;44.81
50125;BME280;36023;48.670;6.184;2023-03-26T17:53:26;97897.50;;;17.50;44.68
50125;BME280;36023;48.670;6.184;2023-03-26T17:56:05;97900.03;;;17.52;44.60
50125;BME280;36023;48.670;6.184;2023-03-26T17:58:41;97910.31;;;17.55;44.69
50125;BME280;36023;48.670;6.184;2023-03-26T18:03:53;97910.00;;;17.60;44.71
50125;BME280;36023;48.670;6.184;2023-03-26T18:15:23;97922.41;;;17.70;44.54
50125;BME280;36023;48.670;6.184;2023-03-26T18:18:09;97926.69;;;17.71;44.39
50125;BME280;36023;48.670;6.184;2023-03-26T18:20:36;97930.97;;;17.72;44.44
50125;BME280;36023;48.670;6.184;2023-03-26T18:23:19;97926.69;;;17.71;44.38
50125;BME280;36023;48.670;6.184;2023-03-26T18:25:55;97931.94;;;17.71;44.32
50125;BME280;36023;48.670;6.184;2023-03-26T18:28:29;97933.72;;;17.71;44.52
50125;BME280;36023;48.670;6.184;2023-03-26T18:31:06;97947.63;;;17.71;44.48
50125;BME280;36023;48.670;6.184;2023-03-26T18:33:41;97955.56;;;17.70;44.35
50125;BME280;36023;48.670;6.184;2023-03-26T18:36:09;97966.91;;;17.70;44.48
50125;BME280;36023;48.670;6.184;2023-03-26T18:38:35;97967.09;;;17.67;44.44
50125;BME280;36023;48.670;6.184;2023-03-26T18:41:02;97967.09;;;17.67;44.38
50125;BME280;36023;48.670;6.184;2023-03-26T18:43:32;97971.50;;;17.67;44.50
50125;BME280;36023;48.670;6.184;2023-03-26T18:45:58;97967.28;;;17.64;44.33
50125;BME280;36023;48.670;6.184;2023-03-26T18:48:26;97967.28;;;17.64;44.33
50125;BME280;36023;48.670;6.184;2023-03-26T18:50:59;97949.06;;;17.63;44.60
50125;BME280;36023;48.670;6.184;2023-03-26T18:53:28;97940.47;;;17.61;44.41
50125;BME280;36023;48.670;6.184;2023-03-26T18:55:56;97945.72;;;17.61;44.41
50125;BME280;36023;48.670;6.184;2023-03-26T19:00:59;97943.38;;;17.56;44.30
50125;BME280;36023;48.670;6.184;2023-03-26T19:03:27;97955.63;;;17.55;44.43
50125;BME280;36023;48.670;6.184;2023-03-26T19:05:56;97954.91;;;17.53;44.52
50125;BME280;36023;48.670;6.184;2023-03-26T19:08:23;97955.97;;;17.51;44.29